Time;durP1;ratioP1;P1;durP2;ratioP2;P2;SDS_P1;SDS_P2;PMS_P1;PMS_P2;Temp;Humidity;BMP_temperature;BMP_pressure;BME280_temperature;BME280_humidity;BME280_pressure;Samples;Min_cycle;Max_cycle;Signal;HPM_P1;HPM_P2
2024/02/02 04:20:54;;;;;;;;;;;;;;;;;;;;;
2024/02/02 04:27:14;;;;;;;;;;;;;;;;;;;;;
2024/02/02 04:33:24;;;;;;;;;;;;;;;;;;;;;
2024/02/02 04:42:47;;;;;;;13.63;2.00;;;4.90;99.90;;;;;;4854182;24;20166;-94
2024/02/02 04:54:28;;;;;;;15.27;1.63;;;4.70;99.90;;;;;;4859104;24;20175;-96
2024/02/02 04:57:01;;;;;;;;;;;;;;;;;;;;;
2024/02/02 04:59:33;;;;;;;4.17;1.40;;;4.70;99.90;;;;;;4872454;24;20164;-93
2024/02/02 05:02:33;;;;;;;;;;;;;;;;;;;;;
2024/02/02 05:05:39;;;;;;;12.17;1.40;;;4.90;99.90;;;;;;4990221;23;20193;-96
2024/02/02 05:11:55;;;;;;;;;;;;;;;;;;;;;
2024/02/02 05:21:56;;;;;;;3.20;0.77;;;5.00;99.90;;;;;;5140590;22;20253;-96
2024/02/02 05:35:31;;;;;;;;;;;;;;;;;;;;;
2024/02/02 06:22:14;;;;;;;6.23;1.00;;;4.70;99.90;;;;;;5239420;22;20185;-94
2024/02/02 06:24:24;;;;;;;8.30;1.77;;;4.80;99.90;;;;;;5175007;22;20577;-96
2024/02/02 06:26:31;;;;;;;4.50;1.10;;;4.70;99.90;;;;;;5173037;22;20159;-95
2024/02/02 06:28:38;;;;;;;1.13;0.67;;;4.70;99.90;;;;;;5169763;22;20154;-92
2024/02/02 06:30:42;;;;;;;6.37;1.00;;;4.70;99.90;;;;;;5143108;23;20215;-94
2024/02/02 06:33:24;;;;;;;;;;;;;;;;;;;;;
2024/02/02 06:45:25;;;;;;;3.80;0.60;;;4.60;99.90;;;;;;5094795;23;20160;-94
2024/02/02 06:51:10;;;;;;;7.00;0.90;;;4.70;99.90;;;;;;5168997;23;20235;-94
2024/02/02 06:53:53;;;;;;;;;;;;;;;;;;;;;
2024/02/02 07:00:22;;;;;;;;;;;;;;;;;;;;;
2024/02/02 07:03:07;;;;;;;15.23;1.33;;;4.60;99.90;;;;;;4977343;23;20160;-95
2024/02/02 07:05:48;;;;;;;7.23;1.53;;;4.70;99.90;;;;;;5072522;23;20181;-95
2024/02/02 07:08:40;;;;;;;;;;;;;;;;;;;;;
2024/02/02 07:12:02;;;;;;;;;;;;;;;;;;;;;
2024/02/02 07:14:49;;;;;;;;;;;;;;;;;;;;;
2024/02/02 07:17:59;;;;;;;4.50;1.00;;;4.70;99.90;;;;;;5097548;23;20207;-94
2024/02/02 07:21:21;;;;;;;7.00;1.33;;;4.70;99.90;;;;;;4955827;23;20168;-94
2024/02/02 07:23:18;;;;;;;1.77;0.93;;;4.60;99.90;;;;;;4955573;23;20852;-94
2024/02/02 07:26:28;;;;;;;3.43;1.00;;;4.60;99.90;;;;;;4998918;23;20647;-95
2024/02/02 07:29:15;;;;;;;;;;;;;;;;;;;;;
2024/02/02 07:32:21;;;;;;;;;;;;;;;;;;;;;
2024/02/02 07:34:52;;;;;;;5.00;1.63;;;4.70;99.90;;;;;;5170504;23;20206;-95
2024/02/02 07:44:04;;;;;;;8.83;1.03;;;4.80;99.90;;;;;;5166362;22;20162;-95
2024/02/02 07:46:34;;;;;;;3.73;1.40;;;4.70;99.90;;;;;;5161599;22;20167;-94
2024/02/02 07:49:11;;;;;;;6.03;2.30;;;4.70;99.90;;;;;;5146536;23;20159;-94
2024/02/02 07:53:53;;;;;;;3.60;0.97;;;4.80;99.90;;;;;;5109835;23;20481;-94
2024/02/02 07:56:21;;;;;;;12.47;1.53;;;4.80;99.90;;;;;;5172431;23;20157;-95
2024/02/02 07:58:51;;;;;;;7.07;2.43;;;4.80;99.90;;;;;;5145152;23;20218;-93
2024/02/02 08:01:36;;;;;;;6.37;1.23;;;4.90;99.90;;;;;;5071679;23;20154;-96
2024/02/02 08:04:14;;;;;;;9.40;2.40;;;4.90;99.90;;;;;;5145814;23;20155;-96
2024/02/02 08:06:44;;;;;;;10.97;1.50;;;5.00;99.90;;;;;;5146155;22;20159;-94
2024/02/02 08:09:00;;;;;;;14.43;2.43;;;5.00;99.90;;;;;;5173097;22;20210;-96
2024/02/02 08:11:35;;;;;;;0.97;0.63;;;5.00;99.90;;;;;;5159936;22;20264;-94
2024/02/02 08:13:54;;;;;;;;;;;;;;;;;;;;;
2024/02/02 08:16:52;;;;;;;12.17;3.70;;;5.00;99.90;;;;;;5197449;22;20147;-95
2024/02/02 08:19:03;;;;;;;0.67;0.47;;;5.10;99.90;;;;;;5170259;23;20166;-93
2024/02/02 08:21:29;;;;;;;;;;;;;;;;;;;;;
2024/02/02 08:24:37;;;;;;;4.07;2.00;;;5.10;99.90;;;;;;5178585;22;20182;-95
2024/02/02 08:26:51;;;;;;;6.17;0.80;;;5.20;99.90;;;;;;5172381;22;20174;-96
2024/02/02 08:29:54;;;;;;;6.40;1.90;;;5.30;99.90;;;;;;5176549;22;20146;-95
2024/02/02 08:32:52;;;;;;;15.33;3.73;;;5.40;99.90;;;;;;5175990;22;20165;-94
2024/02/02 08:35:03;;;;;;;5.50;1.53;;;5.50;99.90;;;;;;5169326;23;20459;-94
2024/02/02 08:37:48;;;;;;;5.00;1.73;;;5.60;99.90;;;;;;5193980;22;20194;-94
2024/02/02 08:40:29;;;;;;;14.60;3.17;;;5.70;99.90;;;;;;5171079;23;20158;-95
2024/02/02 08:47:22;;;;;;;3.40;0.90;;;5.70;99.90;;;;;;5207096;22;20717;-94
2024/02/02 08:50:12;;;;;;;12.00;2.23;;;5.80;99.90;;;;;;5180389;22;20255;-94
2024/02/02 08:58:45;;;;;;;9.00;2.70;;;5.80;99.90;;;;;;5197083;22;20547;-94
2024/02/02 09:00:56;;;;;;;21.33;4.43;;;5.90;99.90;;;;;;5146252;23;20501;-95
2024/02/02 09:03:09;;;;;;;;;;;;;;;;;;;;;
2024/02/02 09:06:14;;;;;;;;;;;;;;;;;;;;;
2024/02/02 09:09:05;;;;;;;14.13;4.47;;;6.00;99.90;;;;;;5182834;22;20154;-94
2024/02/02 09:12:18;;;;;;;19.43;3.90;;;6.10;99.90;;;;;;5119208;23;20199;-94
2024/02/02 09:15:19;;;;;;;8.23;2.40;;;6.20;99.90;;;;;;5098670;23;20203;-94
2024/02/02 09:17:34;;;;;;;12.40;4.00;;;6.30;99.90;;;;;;5069281;23;20201;-94
2024/02/02 09:23:11;;;;;;;17.27;4.67;;;6.40;99.90;;;;;;5046537;23;20162;-94
2024/02/02 09:25:46;;;;;;;27.43;7.97;;;6.40;99.90;;;;;;5092939;23;20180;-93
2024/02/02 09:28:32;;;;;;;;;;;;;;;;;;;;;
2024/02/02 09:34:37;;;;;;;;;;;;;;;;;;;;;
2024/02/02 09:36:53;;;;;;;15.70;3.20;;;6.60;99.90;;;;;;5044771;23;20186;-94
2024/02/02 09:40:10;;;;;;;11.73;2.57;;;6.60;99.90;;;;;;5085148;23;20229;-94
2024/02/02 09:42:57;;;;;;;22.33;8.90;;;6.70;99.90;;;;;;5140090;22;20182;-94
2024/02/02 09:45:55;;;;;;;10.80;3.43;;;6.80;99.90;;;;;;5143935;23;20247;-96
2024/02/02 09:48:38;;;;;;;10.27;2.60;;;6.60;99.90;;;;;;5132646;22;20158;-93
2024/02/02 09:50:50;;;;;;;6.70;2.27;;;6.60;99.90;;;;;;5144535;23;20605;-93
2024/02/02 09:53:38;;;;;;;;;;;;;;;;;;;;;
2024/02/02 09:56:24;;;;;;;14.90;3.63;;;6.60;99.90;;;;;;5169846;23;20192;-94
2024/02/02 09:59:07;;;;;;;18.27;3.90;;;6.70;99.90;;;;;;5170126;22;20201;-94
2024/02/02 10:01:32;;;;;;;19.33;4.30;;;6.80;99.90;;;;;;5114036;23;20182;-94
2024/02/02 10:04:31;;;;;;;6.87;3.30;;;6.90;99.90;;;;;;5148276;23;20155;-96
2024/02/02 10:07:21;;;;;;;21.07;4.30;;;6.90;99.90;;;;;;5170059;23;20178;-94
2024/02/02 10:10:17;;;;;;;;;;;;;;;;;;;;;
2024/02/02 10:13:42;;;;;;;9.27;3.10;;;7.20;99.90;;;;;;5169063;23;20589;-92
2024/02/02 10:20:11;;;;;;;17.47;3.70;;;7.40;99.90;;;;;;5183106;22;20225;-93
2024/02/02 10:23:09;;;;;;;3.70;2.20;;;7.30;99.90;;;;;;5144422;23;20166;-93
2024/02/02 10:25:47;;;;;;;14.60;4.23;;;7.30;99.90;;;;;;5138918;23;20223;-95
2024/02/02 10:27:58;;;;;;;7.50;3.07;;;7.30;99.90;;;;;;5168993;22;20696;-93
2024/02/02 10:33:18;;;;;;;13.57;3.80;;;7.20;99.90;;;;;;5161419;23;20158;-94
2024/02/02 10:36:02;;;;;;;12.40;3.43;;;7.40;99.90;;;;;;5143978;23;20204;-94
2024/02/02 10:38:36;;;;;;;10.87;3.70;;;7.40;99.90;;;;;;5170968;22;20197;-94
2024/02/02 10:41:22;;;;;;;;;;;;;;;;;;;;;
2024/02/02 10:43:59;;;;;;;13.57;3.77;;;7.30;99.90;;;;;;5171075;23;20159;-94
2024/02/02 10:46:43;;;;;;;;;;;;;;;;;;;;;
2024/02/02 10:49:29;;;;;;;11.67;4.57;;;7.10;99.90;;;;;;5169931;23;20150;-96
2024/02/02 10:52:32;;;;;;;;;;;;;;;;;;;;;
2024/02/02 10:55:25;;;;;;;;;;;;;;;;;;;;;
2024/02/02 10:58:38;;;;;;;13.33;4.63;;;7.30;99.90;;;;;;4965316;23;20664;-95
2024/02/02 11:01:23;;;;;;;19.23;6.47;;;7.40;99.90;;;;;;5047489;23;20221;-94
2024/02/02 11:03:45;;;;;;;14.47;4.43;;;7.50;99.90;;;;;;5145341;23;20162;-94
2024/02/02 11:06:24;;;;;;;18.90;5.53;;;7.50;99.90;;;;;;5145133;23;20174;-94
2024/02/02 11:08:33;;;;;;;16.33;4.47;;;7.30;99.90;;;;;;5144717;23;20154;-94
2024/02/02 11:11:16;;;;;;;31.97;5.77;;;7.30;99.90;;;;;;5169818;23;20154;-96
2024/02/02 11:13:46;;;;;;;29.07;6.60;;;7.30;99.90;;;;;;5147673;23;20183;-94
2024/02/02 11:16:18;;;;;;;;;;;;;;;;;;;;;
2024/02/02 11:18:57;;;;;;;18.27;7.00;;;7.50;99.90;;;;;;5169260;23;20213;-95
2024/02/02 11:21:53;;;;;;;11.33;4.53;;;7.50;99.90;;;;;;5196160;22;20158;-95
2024/02/02 11:27:30;;;;;;;16.33;3.50;;;7.50;99.90;;;;;;5161869;22;20609;-95
2024/02/02 11:29:50;;;;;;;14.20;4.40;;;7.60;99.90;;;;;;5144728;23;20159;-95
2024/02/02 11:32:39;;;;;;;;;;;;;;;;;;;;;
2024/02/02 11:36:03;;;;;;;45.80;6.77;;;7.50;99.90;;;;;;5192761;22;20162;-94
2024/02/02 11:38:37;;;;;;;15.47;3.73;;;7.60;99.90;;;;;;5094144;23;20192;-95
2024/02/02 11:41:33;;;;;;;20.10;5.63;;;7.50;99.90;;;;;;5141179;23;20229;-95
2024/02/02 11:43:44;;;;;;;11.60;4.40;;;7.60;99.90;;;;;;5153440;23;20208;-93
2024/02/02 11:48:50;;;;;;;21.77;5.13;;;7.70;99.90;;;;;;5123166;23;20262;-93
2024/02/02 11:50:56;;;;;;;4.67;2.90;;;7.60;99.90;;;;;;5144237;23;20178;-94
2024/02/02 11:53:45;;;;;;;14.00;4.30;;;7.60;99.90;;;;;;5145802;23;20158;-94
2024/02/02 11:56:33;;;;;;;7.93;3.57;;;7.70;99.90;;;;;;5164411;22;20166;-94
2024/02/02 11:58:38;;;;;;;17.37;5.17;;;7.70;99.90;;;;;;5145184;23;20187;-92
2024/02/02 12:04:36;;;;;;;;;;;;;;;;;;;;;
2024/02/02 12:07:04;;;;;;;19.17;5.23;;;7.80;99.90;;;;;;5169074;23;20174;-94
2024/02/02 12:09:41;;;;;;;23.57;5.83;;;7.80;99.90;;;;;;5144602;23;20151;-93
2024/02/02 12:12:00;;;;;;;15.40;5.53;;;7.80;99.90;;;;;;5165405;22;20155;-93
2024/02/02 12:14:06;;;;;;;24.20;5.77;;;7.70;99.90;;;;;;5144998;23;20152;-93
2024/02/02 12:16:18;;;;;;;17.23;4.17;;;7.70;99.90;;;;;;5145606;23;20329;-93
2024/02/02 12:18:40;;;;;;;12.53;5.20;;;7.70;99.90;;;;;;5145384;23;20270;-94
2024/02/02 12:20:59;;;;;;;14.20;4.57;;;7.80;99.90;;;;;;5144869;23;20595;-94
2024/02/02 12:23:02;;;;;;;16.40;5.00;;;7.80;99.90;;;;;;5144738;23;20159;-93
2024/02/02 12:25:13;;;;;;;13.07;4.53;;;7.90;99.90;;;;;;5171669;23;20150;-94
2024/02/02 12:27:17;;;;;;;17.90;6.10;;;7.90;99.90;;;;;;5169289;23;20218;-94
2024/02/02 12:29:58;;;;;;;16.73;7.17;;;7.90;99.90;;;;;;5145496;23;20162;-95
2024/02/02 12:35:05;;;;;;;17.60;6.53;;;7.90;99.90;;;;;;5094233;23;20164;-94
2024/02/02 12:38:03;;;;;;;;;;;;;;;;;;;;;
2024/02/02 12:40:45;;;;;;;18.67;6.03;;;8.00;99.90;;;;;;5155856;22;20150;-95
2024/02/02 12:42:49;;;;;;;16.70;4.43;;;8.20;99.90;;;;;;5145478;23;20231;-94
2024/02/02 12:45:54;;;;;;;17.90;4.57;;;8.30;99.90;;;;;;5150249;23;20195;-94
2024/02/02 12:48:16;;;;;;;15.70;5.83;;;8.20;99.90;;;;;;5144688;23;20171;-96
2024/02/02 12:51:56;;;;;;;15.32;5.85;;;8.40;99.90;;;;;;5170170;22;20159;-93
2024/02/02 12:54:46;;;;;;;12.40;5.38;;;8.30;99.90;;;;;;5196968;22;20185;-93
2024/02/02 12:56:54;;;;;;;15.67;3.50;;;8.40;99.90;;;;;;5169393;23;20175;-94
2024/02/02 12:58:59;;;;;;;10.73;4.07;;;8.30;99.90;;;;;;5144424;23;20550;-93
2024/02/02 13:01:37;;;;;;;11.80;5.53;;;8.30;99.90;;;;;;5143763;23;20152;-94
2024/02/02 13:07:16;;;;;;;;;;;;;;;;;;;;;
2024/02/02 13:09:40;;;;;;;7.90;3.33;;;8.20;99.90;;;;;;5169118;23;20237;-93
2024/02/02 13:12:12;;;;;;;18.63;6.18;;;8.30;99.90;;;;;;5148842;22;20188;-95
2024/02/02 13:14:26;;;;;;;17.97;5.20;;;8.20;99.90;;;;;;5144297;23;20597;-93
2024/02/02 13:19:57;;;;;;;;;;;;;;;;;;;;;
2024/02/02 13:22:41;;;;;;;;;;;;;;;;;;;;;
2024/02/02 13:24:58;;;;;;;18.85;5.45;;;8.20;99.90;;;;;;5168826;23;20177;-93
2024/02/02 13:27:03;;;;;;;16.73;6.20;;;8.30;99.90;;;;;;5143564;23;20207;-95
2024/02/02 13:29:15;;;;;;;18.70;6.93;;;8.30;99.90;;;;;;5145424;23;20152;-94
2024/02/02 13:31:22;;;;;;;12.70;5.47;;;8.20;99.90;;;;;;5143331;23;20538;-93
2024/02/02 13:34:16;;;;;;;12.52;5.78;;;8.10;99.90;;;;;;5168361;22;20158;-95
2024/02/02 13:36:22;;;;;;;15.50;4.30;;;8.20;99.90;;;;;;5143302;23;20151;-94
2024/02/02 13:38:30;;;;;;;27.70;6.57;;;8.00;99.90;;;;;;5145342;23;20661;-94
2024/02/02 13:40:32;;;;;;;13.70;4.80;;;7.90;99.90;;;;;;5143286;23;20151;-93
2024/02/02 13:42:45;;;;;;;10.93;3.87;;;7.90;99.90;;;;;;5145493;23;20218;-95
2024/02/02 13:44:58;;;;;;;17.57;6.47;;;7.90;99.90;;;;;;5144806;23;20151;-93
2024/02/02 13:47:37;;;;;;;13.90;5.00;;;8.00;99.90;;;;;;5144264;23;20182;-93
2024/02/02 13:49:45;;;;;;;14.60;4.83;;;8.10;99.90;;;;;;5143807;23;20155;-93
2024/02/02 13:51:51;;;;;;;15.70;5.63;;;8.00;99.90;;;;;;5147664;23;20151;-93
2024/02/02 13:53:57;;;;;;;24.73;6.53;;;8.00;99.90;;;;;;5143210;23;20586;-93
2024/02/02 13:56:32;;;;;;;19.13;7.47;;;8.10;99.90;;;;;;5144158;23;20167;-96
2024/02/02 13:58:48;;;;;;;16.17;5.70;;;8.20;99.90;;;;;;5144415;23;20191;-93
2024/02/02 14:01:37;;;;;;;17.85;6.05;;;8.30;99.90;;;;;;5144493;23;20151;-96
2024/02/02 14:03:56;;;;;;;31.10;6.07;;;8.30;99.90;;;;;;5095532;23;20160;-93
2024/02/02 14:06:01;;;;;;;16.20;6.53;;;8.20;99.90;;;;;;5094900;23;20227;-95
2024/02/02 14:08:45;;;;;;;13.73;4.38;;;8.30;99.90;;;;;;5115071;23;20343;-94
2024/02/02 14:11:11;;;;;;;16.77;6.20;;;8.20;99.90;;;;;;5125674;23;20151;-94
2024/02/02 14:13:22;;;;;;;14.65;4.72;;;8.30;99.90;;;;;;5170896;22;20544;-94
2024/02/02 14:15:40;;;;;;;21.25;6.75;;;8.30;99.90;;;;;;5143456;23;20590;-93
2024/02/02 14:18:18;;;;;;;16.52;5.43;;;8.30;99.90;;;;;;5143745;22;20187;-94
2024/02/02 14:20:29;;;;;;;21.13;5.40;;;8.50;99.90;;;;;;5171984;22;20154;-93
2024/02/02 14:22:44;;;;;;;32.70;5.60;;;8.30;99.90;;;;;;5144243;23;20203;-94
2024/02/02 14:25:17;;;;;;;16.97;5.40;;;8.30;99.90;;;;;;5145001;23;20155;-94
2024/02/02 14:27:57;;;;;;;12.90;4.70;;;8.30;99.90;;;;;;5167118;23;20622;-94
2024/02/02 14:30:24;;;;;;;20.00;6.03;;;8.50;99.90;;;;;;5140126;23;20610;-94
2024/02/02 14:32:47;;;;;;;14.02;5.55;;;8.40;99.90;;;;;;5144755;23;20159;-94
2024/02/02 14:34:56;;;;;;;9.38;4.22;;;8.40;99.90;;;;;;5149690;23;20183;-93
2024/02/02 14:36:57;;;;;;;16.87;5.57;;;8.40;99.90;;;;;;5162776;23;20171;-94
2024/02/02 14:40:07;;;;;;;12.15;4.97;;;8.50;99.90;;;;;;5161189;23;20186;-95
2024/02/02 14:42:58;;;;;;;14.73;5.10;;;8.60;99.90;;;;;;5147794;23;20154;-94
2024/02/02 14:45:52;;;;;;;20.43;5.07;;;8.60;99.90;;;;;;5143751;23;20178;-94
2024/02/02 14:48:11;;;;;;;10.03;4.63;;;8.60;99.90;;;;;;5071999;23;20664;-95
2024/02/02 14:51:10;;;;;;;17.52;5.97;;;8.60;99.90;;;;;;5144048;23;20155;-93
2024/02/02 14:53:36;;;;;;;14.02;5.00;;;8.80;99.90;;;;;;5144313;23;20198;-95
2024/02/02 14:55:40;;;;;;;18.48;5.00;;;8.90;99.90;;;;;;5144300;22;20175;-92
2024/02/02 14:57:50;;;;;;;10.30;4.15;;;9.00;99.90;;;;;;5143159;23;20604;-94
2024/02/02 14:59:57;;;;;;;13.15;4.63;;;9.00;99.90;;;;;;5143171;23;20148;-95
2024/02/02 15:02:23;;;;;;;11.32;4.40;;;8.90;99.90;;;;;;5144610;23;20152;-95
2024/02/02 15:04:37;;;;;;;8.55;4.57;;;8.80;99.90;;;;;;5147639;23;20152;-94
2024/02/02 15:07:03;;;;;;;11.02;5.10;;;9.00;99.90;;;;;;5143751;23;20177;-95
2024/02/02 15:11:50;;;;;;;12.25;4.18;;;9.00;99.90;;;;;;5169225;23;20177;-94
2024/02/02 15:14:12;;;;;;;11.02;4.28;;;9.10;99.90;;;;;;5168725;23;20155;-93
2024/02/02 15:16:14;;;;;;;6.20;3.08;;;9.10;99.90;;;;;;5144786;23;20606;-92
2024/02/02 15:18:16;;;;;;;8.18;3.83;;;9.10;99.90;;;;;;5143355;23;20191;-95
2024/02/02 15:20:18;;;;;;;14.00;4.57;;;9.00;99.90;;;;;;5144045;23;20204;-94
2024/02/02 15:22:47;;;;;;;13.30;4.05;;;9.00;99.90;;;;;;5171995;22;20581;-94
2024/02/02 15:24:48;;;;;;;8.35;3.78;;;9.20;99.90;;;;;;5143604;23;20221;-94
2024/02/02 15:27:16;;;;;;;11.95;4.35;;;9.20;99.90;;;;;;5145065;23;20653;-94
2024/02/02 15:29:38;;;;;;;9.20;3.30;;;9.10;99.90;;;;;;5145744;23;20191;-95
2024/02/02 15:32:02;;;;;;;8.93;4.03;;;9.20;99.90;;;;;;5170723;23;20143;-95
2024/02/02 15:34:30;;;;;;;7.88;3.88;;;9.20;99.90;;;;;;5171944;22;20173;-93
2024/02/02 15:36:32;;;;;;;5.80;2.60;;;9.20;99.90;;;;;;5146241;23;20175;-94
2024/02/02 15:38:37;;;;;;;9.85;3.53;;;9.20;99.90;;;;;;5145019;23;20194;-94
2024/02/02 15:40:58;;;;;;;10.52;4.47;;;9.10;99.90;;;;;;5144760;23;20155;-95
2024/02/02 15:43:55;;;;;;;;;;;;;;;;;;;;;
2024/02/02 15:46:04;;;;;;;5.93;2.92;;;9.30;99.90;;;;;;5170429;23;20155;-94
2024/02/02 15:48:29;;;;;;;9.65;3.95;;;9.30;99.90;;;;;;5170414;23;20200;-92
2024/02/02 15:50:41;;;;;;;7.97;2.63;;;9.20;99.90;;;;;;5144412;23;20152;-94
2024/02/02 15:53:03;;;;;;;9.40;3.88;;;9.10;99.90;;;;;;5174927;22;20143;-93
2024/02/02 15:55:38;;;;;;;12.63;5.10;;;9.10;99.90;;;;;;5145918;23;20246;-93
2024/02/02 15:57:50;;;;;;;6.55;3.03;;;9.20;99.90;;;;;;5147834;23;20192;-94
2024/02/02 16:00:19;;;;;;;9.75;5.13;;;9.30;99.90;;;;;;5171321;22;20180;-95
2024/02/02 16:02:43;;;;;;;15.23;7.22;;;9.30;99.90;;;;;;5125306;23;20586;-94
2024/02/02 16:05:04;;;;;;;12.52;5.80;;;9.20;99.90;;;;;;5197352;22;20160;-95
2024/02/02 16:07:31;;;;;;;14.65;5.75;;;9.30;99.90;;;;;;5175059;22;20170;-94
2024/02/02 16:09:41;;;;;;;7.68;4.10;;;9.30;99.90;;;;;;5148677;23;20663;-95
2024/02/02 16:12:01;;;;;;;11.60;4.30;;;9.40;99.90;;;;;;5145756;23;20187;-94
2024/02/02 16:14:31;;;;;;;10.10;3.95;;;9.50;99.90;;;;;;5145527;23;20466;-95
2024/02/02 16:16:44;;;;;;;15.48;2.83;;;9.30;99.90;;;;;;5101522;23;20164;-95
2024/02/02 16:18:56;;;;;;;10.80;3.97;;;9.30;99.90;;;;;;5143631;23;20215;-93
2024/02/02 16:21:16;;;;;;;;;;;;;;;;;;;;;
2024/02/02 16:23:23;;;;;;;6.70;3.03;;;9.20;99.90;;;;;;5172217;23;20151;-95
2024/02/02 16:25:34;;;;;;;11.82;4.38;;;9.20;99.90;;;;;;5146611;23;20163;-95
2024/02/02 16:27:41;;;;;;;14.07;5.47;;;9.20;99.90;;;;;;5145173;23;20207;-93
2024/02/02 16:29:42;;;;;;;14.02;3.45;;;9.20;99.90;;;;;;5144882;23;20179;-93
2024/02/02 16:32:21;;;;;;;9.20;4.13;;;9.10;99.90;;;;;;5169479;23;20158;-94
2024/02/02 16:34:48;;;;;;;6.60;3.05;;;9.20;99.90;;;;;;5146991;23;20158;-94
2024/02/02 16:37:18;;;;;;;10.65;3.67;;;9.20;99.90;;;;;;5173155;22;20167;-95
2024/02/02 16:42:27;;;;;;;8.27;4.13;;;9.20;99.90;;;;;;5150098;22;20150;-94
2024/02/02 16:44:28;;;;;;;7.20;3.55;;;9.30;99.90;;;;;;5142636;23;20155;-93
2024/02/02 16:46:29;;;;;;;5.03;2.97;;;9.20;99.90;;;;;;5144940;23;20282;-94
2024/02/02 16:48:38;;;;;;;10.18;4.18;;;9.30;99.90;;;;;;5144670;23;20614;-94
2024/02/02 16:51:23;;;;;;;8.32;3.53;;;9.40;99.90;;;;;;5176945;22;20155;-94
2024/02/02 16:53:41;;;;;;;11.15;3.42;;;9.30;99.90;;;;;;5172212;22;20155;-93
2024/02/02 16:55:50;;;;;;;10.35;3.25;;;9.30;99.90;;;;;;5145436;23;20151;-93
2024/02/02 16:58:12;;;;;;;5.55;2.97;;;9.40;99.90;;;;;;5171594;22;20186;-93
2024/02/02 17:00:28;;;;;;;5.80;3.13;;;9.40;99.90;;;;;;5176401;22;20234;-93
2024/02/02 17:02:32;;;;;;;6.43;3.42;;;9.30;99.90;;;;;;5154985;23;20143;-93
2024/02/02 17:04:33;;;;;;;16.38;8.13;;;9.40;99.90;;;;;;5165601;23;20142;-93
2024/02/02 17:07:10;;;;;;;9.23;4.88;;;9.50;99.90;;;;;;5153398;23;20186;-95
2024/02/02 17:12:32;;;;;;;;;;;;;;;;;;;;;
2024/02/02 17:15:23;;;;;;;;;;;;;;;;;;;;;
2024/02/02 17:20:35;;;;;;;4.65;2.88;;;9.70;99.90;;;;;;5170682;22;20209;-96
2024/02/02 17:26:16;;;;;;;;;;;;;;;;;;;;;
2024/02/02 17:29:27;;;;;;;6.32;3.47;;;9.80;99.90;;;;;;5070948;23;20597;-96
2024/02/02 17:31:33;;;;;;;3.35;2.03;;;9.70;99.90;;;;;;5144036;23;20243;-95
2024/02/02 17:34:01;;;;;;;5.10;3.08;;;9.90;99.90;;;;;;5146076;23;20151;-92
2024/02/02 17:36:28;;;;;;;;;;;;;;;;;;;;;
2024/02/02 17:39:44;;;;;;;;;;;;;;;;;;;;;
2024/02/02 17:43:05;;;;;;;;;;;;;;;;;;;;;
2024/02/02 17:45:41;;;;;;;2.97;1.77;;;9.90;99.90;;;;;;5103584;23;20159;-94
2024/02/02 17:51:31;;;;;;;2.47;1.65;;;10.00;99.90;;;;;;5139948;23;20297;-94
2024/02/02 17:53:49;;;;;;;2.40;1.30;;;10.00;99.90;;;;;;5169920;23;20473;-94
2024/02/02 17:56:27;;;;;;;1.67;1.13;;;10.00;99.90;;;;;;5144447;23;20151;-94
2024/02/02 17:59:36;;;;;;;4.32;1.35;;;10.10;99.90;;;;;;5100192;23;20191;-94
2024/02/02 18:02:43;;;;;;;3.47;1.15;;;10.10;99.90;;;;;;5098352;23;20258;-94
2024/02/02 18:05:37;;;;;;;2.55;1.17;;;10.10;99.90;;;;;;5140214;23;20158;-94
2024/02/02 18:08:05;;;;;;;4.55;1.48;;;10.20;99.90;;;;;;5142127;23;20201;-95
2024/02/02 18:10:50;;;;;;;2.17;1.40;;;10.20;99.90;;;;;;5118743;23;20159;-95
2024/02/02 18:13:06;;;;;;;;;;;;;;;;;;;;;
2024/02/02 18:15:25;;;;;;;2.45;1.65;;;10.10;99.90;;;;;;5094246;23;20157;-93
2024/02/02 18:17:31;;;;;;;2.53;1.15;;;10.10;99.90;;;;;;5070342;23;20219;-95
2024/02/02 18:19:45;;;;;;;;;;;;;;;;;;;;;
2024/02/02 18:22:02;;;;;;;2.42;1.30;;;10.20;99.90;;;;;;5071891;23;20161;-95
2024/02/02 18:24:05;;;;;;;2.65;1.15;;;10.10;99.90;;;;;;5069022;23;20257;-93
2024/02/02 18:26:22;;;;;;;;;;;;;;;;;;;;;
2024/02/02 18:28:56;;;;;;;1.48;1.27;;;10.00;99.90;;;;;;5090622;23;20542;-95
2024/02/02 18:32:20;;;;;;;;;;;;;;;;;;;;;
2024/02/02 18:35:13;;;;;;;1.98;1.33;;;10.10;99.90;;;;;;5093063;23;20238;-95
2024/02/02 18:37:53;;;;;;;;;;;;;;;;;;;;;
2024/02/02 18:40:28;;;;;;;;;;;;;;;;;;;;;
2024/02/02 18:42:18;;;;;;;7.07;4.68;;;10.10;99.90;;;;;;5136198;23;20179;-95
2024/02/02 18:45:06;;;;;;;3.03;2.28;;;10.10;99.90;;;;;;5120057;23;20195;-93
2024/02/02 18:47:34;;;;;;;3.80;1.73;;;10.10;99.90;;;;;;5121913;23;20171;-94
2024/02/02 18:49:59;;;;;;;2.80;2.10;;;10.20;99.90;;;;;;5140004;23;20476;-94
2024/02/02 18:56:45;;;;;;;6.30;3.83;;;10.30;99.90;;;;;;5138408;23;20160;-95
2024/02/02 18:58:53;;;;;;;;;;;;;;;;;;;;;
2024/02/02 19:02:05;;;;;;;4.95;3.25;;;10.30;99.90;;;;;;5143088;23;20540;-94
2024/02/02 19:04:53;;;;;;;1.88;1.33;;;10.30;99.90;;;;;;5141788;23;20159;-94
2024/02/02 19:07:29;;;;;;;;;;;;;;;;;;;;;
2024/02/02 19:10:45;;;;;;;1.08;0.70;;;10.10;99.90;;;;;;5141558;23;20156;-94
2024/02/02 19:13:21;;;;;;;1.55;1.45;;;10.10;99.90;;;;;;5041587;23;20159;-95
2024/02/02 19:15:27;;;;;;;1.25;1.15;;;10.10;99.90;;;;;;5030862;23;20587;-94
2024/02/02 19:18:02;;;;;;;1.05;0.70;;;10.10;99.90;;;;;;5145049;23;20194;-95
2024/02/02 19:20:16;;;;;;;1.92;1.23;;;10.10;99.90;;;;;;5146517;23;20517;-94
2024/02/02 19:22:53;;;;;;;;;;;;;;;;;;;;;
2024/02/02 19:25:58;;;;;;;;;;;;;;;;;;;;;
2024/02/02 19:29:15;;;;;;;1.67;1.10;;;10.10;99.90;;;;;;5070798;23;20305;-96
2024/02/02 19:32:16;;;;;;;;;;;;;;;;;;;;;
2024/02/02 19:34:35;;;;;;;0.95;0.60;;;10.10;99.90;;;;;;5024626;23;20179;-95
2024/02/02 19:37:22;;;;;;;2.35;0.98;;;10.10;99.90;;;;;;5037084;23;20183;-96
2024/02/02 19:39:47;;;;;;;4.45;1.10;;;10.10;99.90;;;;;;5020551;23;20162;-95
2024/02/02 19:41:55;;;;;;;1.67;0.90;;;10.20;99.90;;;;;;5022834;23;20637;-93
2024/02/02 19:44:27;;;;;;;;;;;;;;;;;;;;;
2024/02/02 19:50:30;;;;;;;1.27;1.08;;;10.20;99.90;;;;;;4912781;23;20223;-94
2024/02/02 19:53:10;;;;;;;;;;;;;;;;;;;;;
2024/02/02 19:56:09;;;;;;;1.05;0.95;;;10.10;99.90;;;;;;5023690;23;20193;-94
2024/02/02 19:58:24;;;;;;;0.80;0.50;;;10.10;99.90;;;;;;4904042;23;20207;-95
2024/02/02 20:01:19;;;;;;;0.55;0.35;;;10.10;99.90;;;;;;4977983;23;20155;-95
2024/02/02 20:04:30;;;;;;;1.88;1.02;;;10.10;99.90;;;;;;4942991;23;20228;-95
2024/02/02 20:07:09;;;;;;;;;;;;;;;;;;;;;
2024/02/02 20:09:57;;;;;;;;;;;;;;;;;;;;;
2024/02/02 20:12:30;;;;;;;4.28;2.80;;;10.10;99.90;;;;;;5023517;23;20595;-94
2024/02/02 20:31:50;;;;;;;0.70;0.70;;;10.20;99.90;;;;;;5071703;23;20199;-94
2024/02/02 20:34:41;;;;;;;2.10;1.40;;;10.20;99.90;;;;;;5148834;23;20590;-95
2024/02/02 20:37:58;;;;;;;;;;;;;;;;;;;;;
2024/02/02 20:40:57;;;;;;;4.03;2.38;;;10.30;99.90;;;;;;4973749;23;20505;-96
2024/02/02 20:43:39;;;;;;;;;;;;;;;;;;;;;
2024/02/02 20:46:15;;;;;;;;;;;;;;;;;;;;;
2024/02/02 20:57:51;;;;;;;3.35;2.10;;;10.20;99.90;;;;;;5175634;22;20248;-96
2024/02/02 21:38:26;;;;;;;1.25;0.82;;;10.20;99.90;;;;;;4994132;23;20198;-95
2024/02/02 21:41:24;;;;;;;;;;;;;;;;;;;;;
2024/02/02 22:15:52;;;;;;;3.65;1.40;;;10.00;99.90;;;;;;4883418;24;20173;-95
2024/02/02 22:18:11;;;;;;;2.90;1.15;;;10.20;99.90;;;;;;4952570;23;20196;-95
2024/02/02 22:24:16;;;;;;;;;;;;;;;;;;;;;
2024/02/02 22:27:01;;;;;;;1.75;1.00;;;10.00;99.90;;;;;;4906100;23;20232;-95
2024/02/02 22:29:54;;;;;;;1.02;0.80;;;10.10;99.90;;;;;;4945387;23;20165;-95
2024/02/02 22:32:18;;;;;;;1.90;1.15;;;10.20;99.90;;;;;;4949074;23;20161;-95
2024/02/02 22:34:57;;;;;;;;;;;;;;;;;;;;;
2024/02/02 22:37:43;;;;;;;;;;;;;;;;;;;;;
2024/02/02 22:40:33;;;;;;;4.25;1.60;;;10.10;99.90;;;;;;5121524;23;20194;-96
2024/02/02 22:43:35;;;;;;;2.10;1.20;;;10.20;99.90;;;;;;5146557;23;20640;-96
2024/02/02 22:46:17;;;;;;;;;;;;;;;;;;;;;
2024/02/02 22:51:40;;;;;;;;;;;;;;;;;;;;;
2024/02/02 22:57:56;;;;;;;2.70;1.60;;;10.20;99.90;;;;;;5094743;23;20252;-94
2024/02/02 23:03:10;;;;;;;2.50;1.40;;;10.20;99.90;;;;;;5127056;23;20190;-94
2024/02/02 23:08:49;;;;;;;3.33;1.38;;;10.30;99.90;;;;;;5143543;23;20158;-95
2024/02/02 23:15:13;;;;;;;2.50;1.40;;;10.30;99.90;;;;;;5124065;23;20178;-93
2024/02/02 23:17:32;;;;;;;3.53;1.35;;;10.30;99.90;;;;;;5143679;23;20180;-95
2024/02/02 23:37:00;;;;;;;;;;;;;;;;;;;;;
2024/02/02 23:42:41;;;;;;;3.10;1.65;;;10.30;99.90;;;;;;5012190;23;20267;-96
2024/02/02 23:45:39;;;;;;;3.15;1.67;;;10.40;99.90;;;;;;5001545;23;20163;-95
2024/02/02 23:58:17;;;;;;;6.07;1.10;;;10.30;99.90;;;;;;4952914;24;20356;-93
